createdAt,value
2019-01-30T15:07:29.007Z,10.12
2019-01-30T15:09:55.323Z,10.04
2019-01-30T15:12:23.996Z,10.01
2019-01-30T15:14:52.786Z,10.01
2019-01-30T15:17:21.490Z,9.45
2019-01-30T15:19:50.164Z,9.78
2019-01-30T15:22:18.886Z,8.66
2019-01-30T15:24:47.592Z,9.26
2019-01-30T15:27:16.494Z,9.50
2019-01-30T15:29:45.228Z,8.40
2019-01-30T15:32:13.928Z,8.39
2019-01-30T15:34:42.623Z,8.23
2019-01-30T15:37:11.359Z,7.77
2019-01-30T15:39:40.055Z,7.81
2019-01-30T15:42:08.770Z,7.95
2019-01-30T15:44:37.814Z,7.63
2019-01-30T15:47:06.524Z,8.18
2019-01-30T15:49:35.218Z,8.72
2019-01-30T15:52:03.952Z,8.97
2019-01-30T15:54:32.662Z,9.11
2019-01-30T15:57:01.365Z,9.27
2019-01-30T15:59:30.102Z,9.22
2019-01-30T16:01:58.808Z,9.19
2019-01-30T16:04:27.515Z,9.07
2019-01-30T16:06:56.320Z,9.07
2019-01-30T16:09:25.035Z,9.16
2019-01-30T16:11:53.733Z,9.23
2019-01-30T16:14:22.475Z,9.19
2019-01-30T16:16:51.181Z,9.06
2019-01-30T16:19:19.885Z,8.76
2019-01-30T16:21:48.621Z,8.88
2019-01-30T16:24:17.336Z,9.06
2019-01-30T16:26:46.047Z,9.13
2019-01-30T16:29:14.878Z,9.17
2019-01-30T16:31:43.581Z,8.89
2019-01-30T16:34:12.273Z,9.01
2019-01-30T16:36:41.017Z,9.08
2019-01-30T16:39:09.822Z,9.07
2019-01-30T16:41:38.523Z,9.11
2019-01-30T16:44:07.887Z,9.06
2019-01-30T16:46:36.586Z,9.05
2019-01-30T16:49:05.488Z,9.01
2019-01-30T16:51:34.240Z,8.99
2019-01-30T16:54:02.929Z,9.06
2019-01-30T16:56:31.633Z,8.87
2019-01-30T16:59:00.391Z,8.91
2019-01-30T17:01:29.071Z,8.95
2019-01-30T17:03:57.853Z,8.73
2019-01-30T17:06:26.684Z,8.87
2019-01-30T17:08:55.381Z,8.96
2019-01-30T17:11:24.086Z,8.96
2019-01-30T17:13:52.811Z,8.98
2019-01-30T17:16:21.503Z,9.01
2019-01-30T17:18:52.330Z,9.05
2019-01-30T17:21:21.071Z,8.97
2019-01-30T17:23:49.789Z,8.83
2019-01-30T17:26:18.485Z,8.94
2019-01-30T17:28:47.363Z,9.07
2019-01-30T17:31:16.070Z,8.92
2019-01-30T17:33:44.776Z,9.06
2019-01-30T17:36:18.705Z,9.11
2019-01-30T17:38:43.943Z,9.11
2019-01-30T17:41:12.654Z,9.06
2019-01-30T17:43:41.394Z,9.06
2019-01-30T17:46:10.103Z,8.99
2019-01-30T17:48:38.816Z,9.05
2019-01-30T17:51:09.040Z,8.83
2019-01-30T17:53:37.844Z,7.67
2019-01-30T17:56:06.665Z,8.09
2019-01-30T17:58:36.985Z,8.35
2019-01-30T18:01:05.889Z,8.14
2019-01-30T18:03:34.597Z,8.13
2019-01-30T18:06:03.425Z,8.62
2019-01-30T18:08:32.412Z,8.14
2019-01-30T18:11:01.111Z,7.86
2019-01-30T18:13:29.853Z,7.94
2019-01-30T18:15:58.558Z,8.16
2019-01-30T18:18:27.361Z,8.43
2019-01-30T18:20:56.114Z,8.47
2019-01-30T18:23:24.804Z,8.18
2019-01-30T18:25:53.604Z,8.28
2019-01-30T18:28:22.336Z,7.91
2019-01-30T18:30:51.037Z,8.22
2019-01-30T18:33:19.736Z,6.90
2019-01-30T18:35:48.499Z,6.71
2019-01-30T18:38:17.499Z,7.54
2019-01-30T18:40:46.191Z,7.12
2019-01-30T18:43:14.937Z,6.92
2019-01-30T18:45:43.646Z,7.67
2019-01-30T18:48:12.442Z,6.95
2019-01-30T18:50:41.180Z,6.95
2019-01-30T18:53:09.881Z,6.35
2019-01-30T18:55:38.580Z,6.43
2019-01-30T18:58:07.306Z,6.74
2019-01-30T19:00:40.657Z,7.09
2019-01-30T19:03:11.149Z,6.69
2019-01-30T19:05:41.560Z,7.08
2019-01-30T19:08:10.266Z,6.18
2019-01-30T19:10:38.965Z,6.99
2019-01-30T19:13:07.687Z,7.42
2019-01-30T19:15:36.492Z,7.72
2019-01-30T19:18:05.793Z,7.57
2019-01-30T19:20:43.105Z,7.81
2019-01-30T19:23:11.794Z,7.93
2019-01-30T19:25:40.801Z,7.43
2019-01-30T19:28:09.939Z,6.00
2019-01-30T19:30:38.644Z,6.00
2019-01-30T19:33:09.032Z,6.11
2019-01-30T19:35:37.767Z,6.36
2019-01-30T19:38:10.279Z,6.44
2019-01-30T19:40:40.288Z,7.05
2019-01-30T19:43:09.012Z,7.11
2019-01-30T19:45:38.007Z,7.41
2019-01-30T19:48:07.504Z,7.66
2019-01-30T19:50:36.343Z,6.11
2019-01-30T19:53:08.123Z,6.55
2019-01-30T19:55:36.818Z,7.06
2019-01-30T19:58:06.132Z,6.06
2019-01-30T20:00:43.294Z,6.72
2019-01-30T20:03:14.538Z,7.30
2019-01-30T20:05:46.271Z,7.47
2019-01-30T20:08:15.076Z,6.94
2019-01-30T20:10:44.029Z,7.43
2019-01-30T20:13:12.735Z,7.57
2019-01-30T20:15:41.428Z,6.14
2019-01-30T20:18:10.161Z,7.04
2019-01-30T20:20:38.863Z,6.37
2019-01-30T20:23:07.872Z,6.05
2019-01-30T20:25:43.916Z,7.24
2019-01-30T20:28:12.476Z,7.32
2019-01-30T20:30:44.091Z,6.40
2019-01-30T20:33:13.019Z,6.36
2019-01-30T20:35:41.718Z,6.89
2019-01-30T20:38:10.599Z,6.15
2019-01-30T20:40:39.334Z,6.40
2019-01-30T20:43:08.030Z,6.68
2019-01-30T20:45:36.738Z,7.01
2019-01-30T20:48:05.972Z,6.98
2019-01-30T20:50:35.899Z,7.33
2019-01-30T20:53:06.004Z,7.64
2019-01-30T20:55:34.721Z,7.61
2019-01-30T20:58:03.407Z,7.50
2019-01-30T21:00:37.068Z,7.78
2019-01-30T21:03:06.892Z,7.74
2019-01-30T21:05:35.589Z,7.53
2019-01-30T21:08:04.585Z,7.60
2019-01-30T21:10:38.279Z,7.66
2019-01-30T21:13:07.373Z,7.66
2019-01-30T21:15:36.169Z,7.65
2019-01-30T21:18:05.410Z,6.78
2019-01-30T21:20:34.313Z,7.01
2019-01-30T21:23:03.032Z,7.38
2019-01-30T21:25:33.332Z,7.07
2019-01-30T21:28:02.136Z,7.31
2019-01-30T21:30:33.043Z,7.39
2019-01-30T21:33:01.897Z,7.59
2019-01-30T21:35:30.698Z,7.28
2019-01-30T21:37:59.590Z,7.63
2019-01-30T21:40:28.533Z,7.56
2019-01-30T21:42:57.540Z,7.51
2019-01-30T21:45:26.765Z,5.65
2019-01-30T21:47:55.484Z,6.56
2019-01-30T21:50:24.281Z,6.96
2019-01-30T21:52:52.975Z,7.32
2019-01-30T21:55:23.745Z,7.57
2019-01-30T21:57:52.537Z,7.70
2019-01-30T22:00:29.535Z,7.65
2019-01-30T22:02:58.340Z,6.42
2019-01-30T22:05:27.248Z,6.80
2019-01-30T22:08:01.063Z,7.18
2019-01-30T22:10:30.096Z,7.27
2019-01-30T22:12:58.721Z,7.43
2019-01-30T22:15:27.656Z,7.42
2019-01-30T22:17:56.319Z,7.58
2019-01-30T22:20:26.526Z,7.54
2019-01-30T22:22:55.455Z,7.55
2019-01-30T22:25:25.557Z,7.45
2019-01-30T22:27:54.519Z,7.33
2019-01-30T22:30:25.682Z,7.10
2019-01-30T22:32:54.573Z,7.15
2019-01-30T22:35:23.199Z,7.19
2019-01-30T22:37:51.861Z,7.06
2019-01-30T22:40:20.493Z,7.00
2019-01-30T22:42:49.113Z,7.14
2019-01-30T22:45:22.233Z,7.23
2019-01-30T22:47:51.107Z,7.32
2019-01-30T22:50:21.024Z,7.15
2019-01-30T22:52:49.689Z,7.34
2019-01-30T22:55:19.918Z,7.36
2019-01-30T22:57:50.785Z,7.30
2019-01-30T23:00:59.648Z,7.34
2019-01-30T23:03:33.900Z,7.40
2019-01-30T23:06:23.547Z,7.19
2019-01-30T23:08:55.076Z,7.35
2019-01-30T23:11:53.816Z,7.22
2019-01-30T23:14:24.271Z,7.18
2019-01-30T23:16:58.753Z,7.11
2019-01-30T23:19:33.070Z,7.16
2019-01-30T23:22:10.198Z,7.21
2019-01-30T23:24:53.362Z,7.21
2019-01-30T23:27:24.938Z,7.21
2019-01-30T23:30:11.355Z,7.02
2019-01-30T23:32:51.681Z,7.16
2019-01-30T23:35:26.164Z,7.21
2019-01-30T23:38:06.473Z,7.32
2019-01-30T23:40:38.003Z,7.37
2019-01-30T23:43:21.373Z,7.37
2019-01-30T23:45:58.457Z,7.26
2019-01-30T23:48:30.017Z,7.33
2019-01-30T23:51:10.376Z,7.15
2019-01-30T23:53:41.953Z,7.02
2019-01-30T23:56:13.484Z,7.21
2019-01-30T23:58:53.584Z,7.22
